Time;durP1;ratioP1;P1;durP2;ratioP2;P2;SDS_P1;SDS_P2;PMS_P1;PMS_P2;Temp;Humidity;BMP_temperature;BMP_pressure;BME280_temperature;BME280_humidity;BME280_pressure;Samples;Min_cycle;Max_cycle;Signal;HPM_P1;HPM_P2
2022/06/15 00:00:32;;;;;;;17.70;12.00;;;12.30;99.90;;;;;;5080870;28;20044;-84
2022/06/15 00:02:58;;;;;;;16.45;12.75;;;12.30;99.90;;;;;;5080076;28;20048;-85
2022/06/15 00:05:24;;;;;;;17.67;13.57;;;12.30;99.90;;;;;;5058975;28;20064;-84
2022/06/15 00:07:50;;;;;;;21.30;12.48;;;12.20;99.90;;;;;;5076050;28;20032;-84
2022/06/15 00:10:15;;;;;;;18.08;12.63;;;12.20;99.90;;;;;;5077774;28;20040;-84
2022/06/15 00:12:41;;;;;;;15.07;11.35;;;12.20;99.90;;;;;;5077034;28;20056;-84
2022/06/15 00:15:08;;;;;;;15.10;11.82;;;12.10;99.90;;;;;;5054559;28;20043;-83
2022/06/15 00:17:33;;;;;;;25.23;14.43;;;12.00;99.90;;;;;;5075363;28;20052;-84
2022/06/15 00:19:59;;;;;;;14.55;12.20;;;12.00;99.90;;;;;;5084355;28;20021;-85
2022/06/15 00:22:25;;;;;;;18.52;12.25;;;12.00;99.90;;;;;;5067117;28;20092;-85
2022/06/15 00:24:50;;;;;;;18.20;13.02;;;12.00;99.90;;;;;;5087565;28;20084;-83
2022/06/15 00:27:16;;;;;;;15.82;13.07;;;12.00;99.90;;;;;;5086973;28;20071;-85
2022/06/15 00:29:42;;;;;;;17.13;13.75;;;12.00;99.90;;;;;;5088045;28;20056;-83
2022/06/15 00:32:07;;;;;;;16.83;12.73;;;11.90;99.90;;;;;;5085663;28;20020;-83
2022/06/15 00:34:33;;;;;;;17.92;13.88;;;11.90;99.90;;;;;;5086373;28;20033;-83
2022/06/15 00:37:01;;;;;;;21.35;13.27;;;11.90;99.90;;;;;;5088046;28;20028;-84
2022/06/15 00:39:27;;;;;;;17.23;12.73;;;12.00;99.90;;;;;;5084911;28;20056;-85
2022/06/15 00:41:53;;;;;;;16.50;13.10;;;12.00;99.90;;;;;;5087960;28;20036;-84
2022/06/15 00:44:21;;;;;;;21.17;13.50;;;12.00;99.90;;;;;;5083640;28;20043;-76
2022/06/15 00:46:51;;;;;;;17.85;12.57;;;11.90;99.90;;;;;;5072074;28;20072;-79
2022/06/15 00:49:17;;;;;;;14.70;12.00;;;12.00;99.90;;;;;;5087343;28;20033;-82
2022/06/15 00:51:45;;;;;;;14.77;11.55;;;12.00;99.90;;;;;;5074145;28;20075;-83
2022/06/15 00:54:11;;;;;;;18.35;12.68;;;12.10;99.90;;;;;;5090679;28;20048;-83
2022/06/15 00:56:38;;;;;;;17.73;12.13;;;11.80;99.90;;;;;;5073433;28;20040;-84
2022/06/15 00:59:09;;;;;;;15.85;12.57;;;11.70;99.90;;;;;;5091222;28;20177;-83
2022/06/15 01:01:35;;;;;;;14.43;11.40;;;11.80;99.90;;;;;;5084398;28;20032;-84
2022/06/15 01:04:02;;;;;;;14.98;12.43;;;11.70;99.90;;;;;;5089146;28;20043;-78
2022/06/15 01:06:48;;;;;;;20.25;12.77;;;11.50;99.90;;;;;;5089860;28;20028;-84
2022/06/15 01:09:34;;;;;;;17.17;11.45;;;11.60;99.90;;;;;;5083998;28;20059;-83
2022/06/15 01:12:25;;;;;;;15.85;12.38;;;11.70;99.90;;;;;;5073709;28;20048;-84
2022/06/15 01:15:09;;;;;;;21.63;12.27;;;11.70;99.90;;;;;;5066130;28;20036;-83
2022/06/15 01:17:53;;;;;;;12.80;11.13;;;11.70;99.90;;;;;;5054984;28;20036;-84
2022/06/15 01:20:34;;;;;;;18.35;11.98;;;11.60;99.90;;;;;;5073984;28;20055;-76
2022/06/15 01:23:26;;;;;;;16.38;11.63;;;11.70;99.90;;;;;;5052341;28;20086;-83
2022/06/15 01:26:01;;;;;;;14.13;11.15;;;11.80;99.90;;;;;;5064241;28;20055;-84
2022/06/15 01:28:46;;;;;;;15.30;11.70;;;11.60;99.90;;;;;;5066604;28;20044;-84
2022/06/15 01:31:33;;;;;;;15.60;12.15;;;11.60;99.90;;;;;;5065129;28;20326;-84
2022/06/15 01:34:01;;;;;;;13.20;11.75;;;11.60;99.90;;;;;;5052521;28;20044;-84
2022/06/15 01:36:39;;;;;;;13.80;10.75;;;11.70;99.90;;;;;;5046174;28;20070;-84
2022/06/15 01:39:23;;;;;;;12.80;10.77;;;11.80;99.90;;;;;;5070114;28;20649;-80
2022/06/15 01:41:57;;;;;;;13.25;10.80;;;11.60;99.90;;;;;;5065988;28;20040;-83
2022/06/15 01:44:34;;;;;;;11.32;10.07;;;11.60;99.90;;;;;;5065980;28;20131;-84
2022/06/15 01:47:03;;;;;;;12.48;9.32;;;11.40;99.90;;;;;;5065460;28;20040;-84
2022/06/15 01:50:15;;;;;;;15.85;10.88;;;11.50;99.90;;;;;;5063129;28;20065;-84
2022/06/15 01:52:53;;;;;;;17.20;11.13;;;11.50;99.90;;;;;;5025893;28;20058;-82
2022/06/15 01:55:44;;;;;;;30.15;12.73;;;11.60;99.90;;;;;;5060937;28;20056;-76
2022/06/15 01:58:12;;;;;;;12.10;9.43;;;11.50;99.90;;;;;;5064435;28;20071;-82
2022/06/15 02:00:38;;;;;;;15.30;10.88;;;11.50;99.90;;;;;;5070015;28;20307;-84
2022/06/15 02:03:11;;;;;;;13.85;10.52;;;11.50;99.90;;;;;;5079214;28;20039;-83
2022/06/15 02:06:10;;;;;;;14.32;9.50;;;11.50;99.90;;;;;;5059786;28;20036;-83
2022/06/15 02:08:48;;;;;;;14.68;9.98;;;11.30;99.90;;;;;;5068080;28;20482;-83
2022/06/15 02:11:34;;;;;;;13.52;8.65;;;11.20;99.90;;;;;;5051609;28;20384;-83
2022/06/15 02:14:11;;;;;;;12.40;8.82;;;11.20;99.90;;;;;;5062690;28;20093;-82
2022/06/15 02:16:41;;;;;;;10.93;9.52;;;11.20;99.90;;;;;;5062339;28;20131;-85
2022/06/15 02:19:11;;;;;;;11.80;9.32;;;11.20;99.90;;;;;;5072684;28;20093;-83
2022/06/15 02:21:39;;;;;;;16.40;10.37;;;11.20;99.90;;;;;;5038629;28;20087;-82
2022/06/15 02:24:07;;;;;;;16.35;11.18;;;11.20;99.90;;;;;;5028829;28;20494;-82
2022/06/15 02:26:37;;;;;;;14.82;11.20;;;11.20;99.90;;;;;;5063781;28;20097;-83
2022/06/15 02:29:08;;;;;;;14.23;10.15;;;11.40;99.90;;;;;;5062101;28;20050;-76
2022/06/15 02:31:35;;;;;;;16.92;10.80;;;11.10;99.90;;;;;;5027361;28;20052;-83
2022/06/15 02:34:03;;;;;;;11.27;9.57;;;11.10;99.90;;;;;;5072869;28;20043;-83
2022/06/15 02:36:32;;;;;;;16.00;10.05;;;11.10;99.90;;;;;;5045002;28;20049;-83
2022/06/15 02:38:58;;;;;;;13.18;10.30;;;10.90;99.90;;;;;;5059557;28;20498;-83
2022/06/15 02:41:24;;;;;;;12.73;9.93;;;10.90;99.90;;;;;;5063124;28;20052;-83
2022/06/15 02:43:52;;;;;;;15.55;10.20;;;11.00;99.90;;;;;;5063420;28;20048;-82
2022/06/15 02:46:20;;;;;;;16.88;10.68;;;10.90;99.90;;;;;;5044273;28;20036;-82
2022/06/15 02:48:46;;;;;;;12.07;8.98;;;11.00;99.90;;;;;;5042307;28;20037;-84
2022/06/15 02:51:31;;;;;;;11.15;9.07;;;11.10;99.90;;;;;;5063510;28;20141;-84
2022/06/15 02:54:02;;;;;;;16.33;10.43;;;11.20;99.90;;;;;;5061777;28;20082;-83
2022/06/15 02:56:29;;;;;;;18.25;10.63;;;11.30;99.90;;;;;;5052165;28;20114;-84
2022/06/15 02:58:57;;;;;;;12.77;9.52;;;11.20;99.90;;;;;;5041508;28;20053;-83
2022/06/15 03:01:24;;;;;;;15.98;11.27;;;11.30;99.90;;;;;;5059980;28;20065;-83
2022/06/15 03:03:50;;;;;;;11.27;9.52;;;11.20;99.90;;;;;;5062418;28;20044;-83
2022/06/15 03:06:17;;;;;;;12.40;9.35;;;11.10;99.90;;;;;;5064665;28;20459;-84
2022/06/15 03:08:43;;;;;;;11.05;8.45;;;10.90;99.90;;;;;;5044337;28;20395;-83
2022/06/15 03:11:09;;;;;;;13.40;8.82;;;10.90;99.90;;;;;;5062508;28;20097;-82
2022/06/15 03:13:35;;;;;;;17.00;10.77;;;10.90;99.90;;;;;;5063274;28;20394;-83
2022/06/15 03:16:03;;;;;;;14.95;9.45;;;11.00;99.90;;;;;;5058827;28;20112;-82
2022/06/15 03:18:30;;;;;;;10.75;8.50;;;11.20;99.90;;;;;;5059806;28;20295;-82
2022/06/15 03:21:00;;;;;;;12.85;9.43;;;11.20;99.90;;;;;;5063203;28;20544;-83
2022/06/15 03:23:26;;;;;;;;;;;11.30;99.90;;;;;;5044851;28;20407;-83
2022/06/15 03:25:56;;;;;;;12.63;9.30;;;11.40;99.90;;;;;;5041572;28;19911;-82
2022/06/15 03:28:23;;;;;;;11.82;9.23;;;11.20;99.90;;;;;;5062309;28;20150;-82
2022/06/15 03:30:49;;;;;;;13.68;9.98;;;11.30;99.90;;;;;;5041061;28;20063;-77
2022/06/15 03:33:15;;;;;;;12.65;8.90;;;11.30;99.90;;;;;;5061980;28;20039;-82
2022/06/15 03:35:42;;;;;;;11.75;8.27;;;11.10;99.90;;;;;;5062320;28;20376;-83
2022/06/15 03:38:08;;;;;;;12.65;8.75;;;11.10;99.90;;;;;;5043995;28;20536;-82
2022/06/15 03:40:42;;;;;;;11.18;7.80;;;11.00;99.90;;;;;;5062328;28;20068;-83
2022/06/15 03:43:09;;;;;;;12.15;8.55;;;11.10;99.90;;;;;;5063202;28;20590;-83
2022/06/15 03:45:35;;;;;;;12.73;8.88;;;11.10;99.90;;;;;;5062195;28;20040;-83
2022/06/15 03:48:02;;;;;;;15.13;9.20;;;11.20;99.90;;;;;;5030921;28;20579;-81
2022/06/15 03:50:31;;;;;;;12.13;8.43;;;11.30;99.90;;;;;;5062585;28;20040;-84
2022/06/15 03:52:58;;;;;;;12.90;9.23;;;11.50;99.90;;;;;;5045199;28;20170;-84
2022/06/15 03:55:24;;;;;;;11.38;7.97;;;11.60;99.90;;;;;;5061433;28;20056;-83
2022/06/15 03:57:51;;;;;;;9.57;6.95;;;11.60;99.90;;;;;;5045985;28;20407;-83
2022/06/15 04:00:20;;;;;;;11.60;8.73;;;11.70;99.90;;;;;;5047078;28;20044;-84
2022/06/15 04:02:45;;;;;;;12.43;8.02;;;11.60;99.90;;;;;;5061829;28;20051;-84
2022/06/15 04:05:17;;;;;;;12.23;7.93;;;11.60;99.90;;;;;;5061639;28;20047;-83
2022/06/15 04:10:28;;;;;;;13.40;8.68;;;11.50;99.90;;;;;;5058416;28;20575;-84
2022/06/15 04:12:53;;;;;;;11.30;6.93;;;11.60;99.90;;;;;;5063352;28;20132;-80
2022/06/15 04:15:19;;;;;;;10.10;8.48;;;11.70;99.90;;;;;;5064234;28;20094;-83
2022/06/15 04:17:45;;;;;;;11.77;7.65;;;11.70;99.90;;;;;;5059572;28;20115;-84
2022/06/15 04:20:32;;;;;;;9.80;7.75;;;11.70;99.90;;;;;;5058872;28;20471;-82
2022/06/15 04:23:09;;;;;;;10.77;7.22;;;11.80;99.90;;;;;;5061593;28;20552;-82
2022/06/15 04:25:41;;;;;;;10.45;7.43;;;12.00;99.90;;;;;;5052372;28;20540;-83
2022/06/15 04:28:09;;;;;;;14.68;8.85;;;12.00;99.90;;;;;;5065119;28;20056;-82
2022/06/15 04:30:35;;;;;;;9.73;8.65;;;12.10;99.90;;;;;;5063820;28;20044;-83
2022/06/15 04:33:01;;;;;;;11.18;8.07;;;12.10;99.90;;;;;;5059220;28;20403;-83
2022/06/15 04:35:27;;;;;;;12.13;6.57;;;12.20;99.90;;;;;;5061618;28;20481;-83
2022/06/15 04:37:54;;;;;;;9.50;6.45;;;12.20;99.90;;;;;;5044289;28;20135;-83
2022/06/15 04:40:20;;;;;;;7.68;6.68;;;12.30;99.90;;;;;;5060573;28;20044;-76
2022/06/15 04:42:46;;;;;;;14.70;7.25;;;12.20;99.90;;;;;;5063968;28;20075;-84
2022/06/15 04:45:13;;;;;;;11.90;7.35;;;12.30;99.90;;;;;;5059841;28;20071;-84
2022/06/15 04:47:39;;;;;;;11.50;7.40;;;12.20;99.90;;;;;;5059632;28;20146;-83
2022/06/15 04:50:07;;;;;;;11.50;7.35;;;12.30;99.90;;;;;;5061327;28;20147;-83
2022/06/15 04:52:33;;;;;;;9.25;6.88;;;12.40;99.90;;;;;;5076025;28;20434;-84
2022/06/15 04:54:59;;;;;;;9.43;7.65;;;12.40;99.90;;;;;;5064385;28;20131;-84
2022/06/15 04:57:25;;;;;;;9.77;7.15;;;12.40;99.90;;;;;;5059678;28;20488;-81
2022/06/15 04:59:51;;;;;;;12.73;8.75;;;12.60;99.90;;;;;;5059282;28;20048;-82
2022/06/15 05:02:17;;;;;;;11.35;7.43;;;12.70;99.90;;;;;;5060770;28;20056;-80
2022/06/15 05:04:42;;;;;;;14.13;6.57;;;12.80;99.90;;;;;;5060229;28;20040;-82
2022/06/15 05:07:08;;;;;;;11.88;6.93;;;12.80;99.90;;;;;;5041158;28;20045;-84
2022/06/15 05:09:34;;;;;;;12.35;7.57;;;12.90;99.90;;;;;;5061540;28;20040;-84
2022/06/15 05:12:00;;;;;;;11.10;7.72;;;12.80;99.90;;;;;;5054179;28;20111;-82
2022/06/15 05:14:26;;;;;;;14.15;7.75;;;12.80;99.90;;;;;;5082215;28;20044;-83
2022/06/15 05:16:52;;;;;;;11.27;6.47;;;13.00;99.90;;;;;;5051384;28;20164;-86
2022/06/15 05:19:18;;;;;;;10.32;6.60;;;13.00;99.90;;;;;;5052648;28;20072;-85
2022/06/15 05:21:45;;;;;;;8.40;6.85;;;13.00;99.90;;;;;;5060578;28;20530;-81
2022/06/15 05:24:11;;;;;;;13.82;8.35;;;13.00;99.90;;;;;;5061638;28;20041;-82
2022/06/15 05:26:37;;;;;;;11.55;7.43;;;12.90;99.90;;;;;;5040393;28;20509;-82
2022/06/15 05:29:04;;;;;;;12.45;7.30;;;13.00;99.90;;;;;;5061185;28;20091;-81
2022/06/15 05:31:30;;;;;;;8.45;6.43;;;13.00;99.90;;;;;;5058841;28;20409;-82
2022/06/15 05:33:57;;;;;;;10.07;7.80;;;13.10;99.90;;;;;;5085612;28;20047;-82
2022/06/15 05:36:29;;;;;;;10.18;7.03;;;13.10;99.90;;;;;;5065625;28;20438;-82
2022/06/15 05:38:55;;;;;;;10.98;7.63;;;13.00;99.90;;;;;;5044371;28;20372;-82
2022/06/15 05:41:21;;;;;;;12.90;7.43;;;13.20;99.90;;;;;;5062310;28;20114;-81
2022/06/15 05:43:51;;;;;;;9.07;7.00;;;13.20;99.90;;;;;;5047665;28;20068;-84
2022/06/15 05:46:26;;;;;;;7.97;6.40;;;13.10;99.90;;;;;;5077371;28;20028;-82
2022/06/15 05:48:54;;;;;;;10.63;7.45;;;13.30;99.90;;;;;;5073821;28;20510;-82
2022/06/15 05:51:20;;;;;;;13.13;6.15;;;13.50;99.90;;;;;;5061915;28;20033;-82
2022/06/15 05:53:46;;;;;;;10.95;6.38;;;13.70;99.90;;;;;;5045005;28;20055;-84
2022/06/15 05:56:12;;;;;;;7.55;6.07;;;13.70;99.90;;;;;;5064409;28;20053;-83
2022/06/15 05:58:37;;;;;;;11.15;6.57;;;13.90;99.90;;;;;;5071054;28;20055;-83
2022/06/15 06:01:16;;;;;;;10.55;5.65;;;14.00;99.90;;;;;;5050037;28;20465;-83
2022/06/15 06:03:42;;;;;;;8.90;4.68;;;14.00;99.90;;;;;;5044826;28;20125;-82
2022/06/15 06:06:09;;;;;;;7.97;5.25;;;14.10;99.90;;;;;;5068172;28;20486;-83
2022/06/15 06:08:35;;;;;;;9.15;5.38;;;14.20;99.90;;;;;;5064483;28;20163;-82
2022/06/15 06:11:02;;;;;;;7.95;5.30;;;14.30;99.90;;;;;;5061107;28;20135;-79
2022/06/15 06:13:28;;;;;;;12.15;6.13;;;14.30;99.90;;;;;;5044833;28;20538;-81
2022/06/15 06:15:55;;;;;;;8.45;5.68;;;14.40;99.90;;;;;;5063273;28;20170;-81
2022/06/15 06:18:24;;;;;;;10.25;5.13;;;14.60;99.90;;;;;;5061395;28;20051;-80
2022/06/15 06:20:51;;;;;;;11.32;5.40;;;14.60;99.90;;;;;;5050782;28;20525;-79
2022/06/15 06:23:17;;;;;;;6.35;5.28;;;14.70;99.90;;;;;;5043453;28;20287;-81
2022/06/15 06:25:44;;;;;;;11.80;5.63;;;14.60;99.90;;;;;;5062324;28;20407;-82
2022/06/15 06:28:40;;;;;;;9.95;5.22;;;14.80;99.90;;;;;;5046254;28;20044;-79
2022/06/15 06:31:09;;;;;;;15.85;7.07;;;14.80;99.90;;;;;;5042069;28;20079;-81
2022/06/15 06:33:37;;;;;;;9.75;5.82;;;14.90;99.90;;;;;;5042733;28;20066;-81
2022/06/15 06:36:11;;;;;;;9.80;7.15;;;14.90;99.90;;;;;;5062941;28;20041;-79
2022/06/15 06:38:37;;;;;;;10.30;5.50;;;15.00;99.90;;;;;;5063527;28;20066;-82
2022/06/15 06:41:04;;;;;;;11.52;4.03;;;15.20;99.90;;;;;;5035125;28;20041;-79
2022/06/15 06:43:29;;;;;;;10.13;3.97;;;15.30;99.90;;;;;;5046616;28;20047;-81
2022/06/15 06:45:55;;;;;;;9.20;3.90;;;15.40;99.90;;;;;;5046661;28;20045;-81
2022/06/15 06:48:20;;;;;;;5.93;3.42;;;15.40;99.90;;;;;;5066250;28;20055;-77
2022/06/15 06:50:46;;;;;;;8.88;3.60;;;15.70;99.90;;;;;;5073146;28;20044;-82
2022/06/15 06:53:14;;;;;;;6.50;3.20;;;15.90;99.90;;;;;;5046646;28;20410;-82
2022/06/15 06:55:40;;;;;;;12.10;4.43;;;16.00;99.90;;;;;;5056772;28;20168;-78
2022/06/15 06:58:06;;;;;;;9.32;4.05;;;16.20;99.90;;;;;;5043494;28;20526;-82
2022/06/15 07:00:33;;;;;;;6.80;3.72;;;16.70;99.90;;;;;;5044575;28;20024;-82
2022/06/15 07:03:01;;;;;;;9.90;3.47;;;16.50;99.90;;;;;;5069482;28;20040;-82
2022/06/15 07:05:27;;;;;;;4.82;3.78;;;16.30;99.90;;;;;;5026164;28;20040;-82
2022/06/15 07:07:53;;;;;;;8.68;3.80;;;16.30;99.90;;;;;;5034924;28;20047;-82
2022/06/15 07:10:19;;;;;;;12.85;3.60;;;16.40;99.90;;;;;;5066683;28;20044;-77
2022/06/15 07:12:45;;;;;;;10.18;3.00;;;16.70;99.90;;;;;;5055557;28;20158;-83
2022/06/15 07:15:13;;;;;;;6.40;3.20;;;16.80;99.90;;;;;;5062846;28;20133;-81
2022/06/15 07:17:39;;;;;;;6.15;2.40;;;17.40;99.90;;;;;;5045260;28;20040;-78
2022/06/15 07:20:06;;;;;;;8.63;2.65;;;17.90;99.90;;;;;;5061883;28;20467;-82
2022/06/15 07:22:31;;;;;;;7.53;2.22;;;17.40;99.90;;;;;;5072309;28;20041;-84
2022/06/15 07:24:57;;;;;;;4.35;2.05;;;17.60;99.90;;;;;;5060591;28;20047;-81
2022/06/15 07:27:24;;;;;;;4.30;2.17;;;18.20;99.90;;;;;;5062143;28;20518;-83
2022/06/15 07:29:50;;;;;;;6.97;2.20;;;18.50;99.90;;;;;;5062149;28;20040;-81
2022/06/15 07:32:17;;;;;;;6.78;2.47;;;19.70;99.90;;;;;;5061981;28;20045;-83
2022/06/15 07:34:44;;;;;;;6.97;2.80;;;20.20;99.90;;;;;;5055149;28;20037;-84
2022/06/15 07:37:10;;;;;;;3.58;1.60;;;19.20;99.90;;;;;;5063534;28;20055;-83
2022/06/15 07:39:37;;;;;;;7.60;2.40;;;18.90;99.90;;;;;;5044029;28;20086;-81
2022/06/15 07:42:05;;;;;;;3.45;2.35;;;18.60;99.90;;;;;;5060833;28;20036;-77
2022/06/15 07:44:33;;;;;;;8.38;2.58;;;18.10;99.90;;;;;;5027825;28;20106;-84
2022/06/15 07:49:56;;;;;;;9.07;3.33;;;18.10;99.90;;;;;;5040991;28;20045;-86
2022/06/15 07:52:29;;;;;;;9.55;4.47;;;17.90;99.90;;;;;;5046487;28;20053;-87
2022/06/15 07:54:55;;;;;;;4.82;2.95;;;17.90;99.90;;;;;;5053464;28;20054;-85
2022/06/15 07:57:21;;;;;;;5.35;3.45;;;17.90;99.90;;;;;;5063101;28;20048;-77
2022/06/15 07:59:47;;;;;;;5.57;2.90;;;18.10;99.90;;;;;;5062194;28;20663;-85
2022/06/15 08:02:13;;;;;;;10.10;3.65;;;18.00;99.90;;;;;;5063057;28;20041;-83
2022/06/15 08:04:39;;;;;;;6.55;3.63;;;17.60;99.90;;;;;;5045395;28;20538;-79
2022/06/15 08:07:06;;;;;;;6.72;2.92;;;17.50;99.90;;;;;;5064453;28;20165;-85
2022/06/15 08:09:32;;;;;;;6.28;3.42;;;17.70;99.90;;;;;;5063906;28;20093;-84
2022/06/15 08:12:19;;;;;;;9.65;3.50;;;17.50;99.90;;;;;;5063751;28;20041;-85
2022/06/15 08:14:50;;;;;;;6.43;3.08;;;17.50;99.90;;;;;;5045768;28;20048;-87
2022/06/15 08:17:25;;;;;;;9.73;4.13;;;18.00;99.90;;;;;;5047259;28;20041;-87
2022/06/15 08:20:05;;;;;;;9.43;3.85;;;17.80;99.90;;;;;;5041728;28;20036;-86
2022/06/15 08:22:34;;;;;;;7.50;3.70;;;17.60;99.90;;;;;;5059772;28;20076;-87
2022/06/15 08:25:03;;;;;;;9.18;3.97;;;17.50;99.90;;;;;;5049483;28;20090;-87
2022/06/15 08:27:29;;;;;;;7.30;3.63;;;17.50;99.90;;;;;;5063638;28;20414;-86
2022/06/15 08:29:55;;;;;;;9.52;3.35;;;17.70;99.90;;;;;;5064853;28;20063;-85
2022/06/15 08:32:22;;;;;;;6.38;3.15;;;18.20;99.90;;;;;;5057079;28;20044;-83
2022/06/15 08:34:49;;;;;;;11.77;4.32;;;18.50;99.90;;;;;;5061460;28;20139;-82
2022/06/15 08:37:17;;;;;;;9.30;4.93;;;18.80;99.90;;;;;;5063919;28;20051;-89
2022/06/15 08:39:43;;;;;;;8.43;3.60;;;18.80;99.90;;;;;;5048687;28;20447;-89
2022/06/15 08:42:30;;;;;;;5.63;2.38;;;18.50;99.90;;;;;;5064506;28;20053;-85
2022/06/15 08:45:26;;;;;;;5.30;1.75;;;18.60;99.90;;;;;;5046823;28;20037;-82
2022/06/15 08:48:13;;;;;;;14.70;2.55;;;18.50;99.90;;;;;;5059977;28;20044;-81
2022/06/15 08:50:49;;;;;;;3.00;1.80;;;19.00;99.90;;;;;;5059401;28;20032;-84
2022/06/15 08:53:36;;;;;;;7.80;3.10;;;19.00;99.90;;;;;;5079070;28;20043;-88
2022/06/15 08:56:13;;;;;;;3.75;1.77;;;19.30;99.90;;;;;;5071031;28;20170;-87
2022/06/15 08:58:45;;;;;;;5.72;1.65;;;19.10;99.90;;;;;;5063360;28;20056;-85
2022/06/15 09:01:30;;;;;;;3.67;2.30;;;19.20;99.90;;;;;;5042801;28;20123;-87
2022/06/15 09:04:20;;;;;;;5.68;2.42;;;19.20;99.90;;;;;;5044698;28;20037;-88
2022/06/15 09:07:10;;;;;;;6.20;2.22;;;19.40;99.90;;;;;;5047605;28;20048;-85
2022/06/15 09:09:39;;;;;;;;;;;19.10;99.90;;;;;;5067523;28;20344;-87
2022/06/15 09:15:06;;;;;;;10.57;2.30;;;19.60;99.90;;;;;;5048261;28;20104;-87
2022/06/15 09:17:33;;;;;;;5.68;1.73;;;19.00;99.90;;;;;;5067381;28;20131;-88
2022/06/15 09:20:12;;;;;;;6.63;2.20;;;19.20;99.90;;;;;;5069525;28;20082;-88
2022/06/15 09:22:47;;;;;;;6.90;2.22;;;19.90;99.90;;;;;;5051773;28;20543;-77
2022/06/15 09:25:31;;;;;;;7.97;2.78;;;19.50;99.90;;;;;;5086027;28;20048;-85
2022/06/15 09:28:05;;;;;;;4.40;1.80;;;19.50;99.90;;;;;;5076813;28;20045;-88
2022/06/15 09:30:34;;;;;;;5.88;2.25;;;20.20;99.90;;;;;;5067061;28;20041;-87
2022/06/15 09:33:13;;;;;;;6.10;2.22;;;20.40;99.90;;;;;;5050238;28;20046;-87
2022/06/15 09:35:43;;;;;;;5.40;2.17;;;20.40;99.90;;;;;;5062259;28;20045;-83
2022/06/15 09:38:11;;;;;;;5.70;2.50;;;20.30;99.90;;;;;;5045744;28;20394;-85
2022/06/15 09:40:58;;;;;;;7.07;2.58;;;20.20;99.90;;;;;;5047448;28;20080;-86
2022/06/15 09:43:51;;;;;;;4.57;2.50;;;20.40;99.90;;;;;;5045746;28;20045;-85
2022/06/15 09:46:26;;;;;;;6.15;2.05;;;19.50;99.90;;;;;;5066241;28;20407;-87
2022/06/15 09:48:57;;;;;;;4.85;2.72;;;19.60;99.90;;;;;;5046649;28;20036;-86
2022/06/15 09:51:45;;;;;;;7.30;1.95;;;20.00;99.90;;;;;;5068109;28;20044;-85
2022/06/15 09:54:32;;;;;;;5.57;1.92;;;20.20;99.90;;;;;;5070194;28;20445;-86
2022/06/15 09:56:57;;;;;;;4.90;3.58;;;20.30;99.90;;;;;;5072277;28;20056;-85
2022/06/15 09:59:25;;;;;;;3.78;1.60;;;20.60;99.90;;;;;;5071012;28;20032;-86
2022/06/15 10:01:51;;;;;;;5.85;2.05;;;20.40;99.90;;;;;;5051942;28;20048;-86
2022/06/15 10:04:28;;;;;;;6.60;3.25;;;20.50;99.90;;;;;;5053283;28;20146;-86
2022/06/15 10:06:59;;;;;;;8.65;3.05;;;19.80;99.90;;;;;;5074292;28;20048;-85
2022/06/15 10:09:28;;;;;;;7.55;2.00;;;19.90;99.90;;;;;;5049994;28;20068;-86
2022/06/15 10:12:56;;;;;;;5.18;2.05;;;20.10;99.90;;;;;;5054709;28;20047;-84
2022/06/15 10:14:51;;;;;;;7.10;2.17;;;20.40;99.90;;;;;;5071775;28;20119;-84
2022/06/15 10:17:30;;;;;;;6.63;2.50;;;20.50;99.90;;;;;;5071014;28;20507;-84
2022/06/15 10:19:57;;;;;;;10.75;3.10;;;20.50;99.90;;;;;;5018264;28;20033;-85
2022/06/15 10:22:37;;;;;;;5.40;3.13;;;20.50;99.90;;;;;;5052199;28;20503;-84
2022/06/15 10:25:05;;;;;;;5.43;2.67;;;19.80;99.90;;;;;;5061290;28;20052;-80
2022/06/15 10:27:34;;;;;;;6.28;2.95;;;19.60;99.90;;;;;;5045854;28;21298;-86
2022/06/15 10:30:06;;;;;;;9.80;2.73;;;19.20;99.90;;;;;;5051552;28;20036;-84
2022/06/15 10:32:32;;;;;;;6.43;2.53;;;19.10;99.90;;;;;;5064112;28;20294;-85
2022/06/15 10:35:03;;;;;;;5.03;2.47;;;19.20;99.90;;;;;;5065679;28;20040;-83
2022/06/15 10:37:38;;;;;;;4.03;2.05;;;19.40;99.90;;;;;;5065876;28;20052;-85
2022/06/15 10:40:27;;;;;;;8.30;2.10;;;19.80;99.90;;;;;;5063981;28;20044;-76
2022/06/15 10:43:02;;;;;;;8.18;3.05;;;20.20;99.90;;;;;;5048427;28;20055;-84
2022/06/15 10:45:40;;;;;;;5.40;2.97;;;20.00;99.90;;;;;;5073288;28;20059;-87
2022/06/15 10:48:23;;;;;;;4.60;2.22;;;19.90;99.90;;;;;;5027329;28;20045;-84
2022/06/15 10:51:04;;;;;;;3.75;2.75;;;20.30;99.90;;;;;;5043519;28;20033;-86
2022/06/15 10:53:36;;;;;;;4.07;2.60;;;20.40;99.90;;;;;;5064858;28;20086;-85
2022/06/15 11:02:07;;;;;;;7.18;2.80;;;20.60;99.90;;;;;;5065531;28;20048;-85
2022/06/15 11:04:51;;;;;;;3.75;2.15;;;20.70;99.90;;;;;;5050914;28;20344;-86
2022/06/15 11:07:22;;;;;;;8.23;3.33;;;20.70;99.90;;;;;;5069519;28;20086;-85
2022/06/15 11:09:54;;;;;;;4.28;2.10;;;21.00;99.90;;;;;;5078693;28;20040;-76
2022/06/15 11:12:29;;;;;;;5.00;2.33;;;20.80;99.90;;;;;;5079642;28;20051;-86
2022/06/15 11:15:05;;;;;;;4.93;2.58;;;20.10;99.90;;;;;;5074237;28;20082;-88
2022/06/15 11:20:37;;;;;;;10.90;3.22;;;20.10;99.90;;;;;;5072397;28;20060;-76
2022/06/15 11:23:19;;;;;;;5.47;2.60;;;19.70;99.90;;;;;;5078210;28;20079;-78
2022/06/15 11:25:51;;;;;;;6.97;2.80;;;20.10;99.90;;;;;;5086140;28;20070;-89
2022/06/15 11:28:29;;;;;;;5.35;1.95;;;20.20;99.90;;;;;;5045773;28;20048;-86
2022/06/15 11:31:05;;;;;;;7.82;2.28;;;20.40;99.90;;;;;;5047584;28;20418;-86
2022/06/15 11:33:41;;;;;;;5.90;2.60;;;20.20;99.90;;;;;;5081047;28;20088;-88
2022/06/15 11:36:28;;;;;;;10.18;2.28;;;20.60;99.90;;;;;;5071390;28;20036;-84
2022/06/15 11:38:59;;;;;;;5.47;2.88;;;20.80;99.90;;;;;;5078444;28;20044;-85
2022/06/15 11:41:29;;;;;;;7.05;2.25;;;20.70;99.90;;;;;;5081897;28;20052;-85
2022/06/15 11:43:59;;;;;;;4.93;1.92;;;20.30;99.90;;;;;;5089359;28;20028;-86
2022/06/15 11:46:27;;;;;;;4.50;2.03;;;20.20;99.90;;;;;;5089601;28;20034;-86
2022/06/15 11:49:07;;;;;;;6.28;3.67;;;20.60;99.90;;;;;;5089198;28;20347;-84
2022/06/15 11:51:54;;;;;;;7.85;3.35;;;20.60;99.90;;;;;;5053657;28;20044;-86
2022/06/15 11:54:23;;;;;;;6.43;2.60;;;20.70;99.90;;;;;;5089393;28;20043;-81
2022/06/15 11:57:17;;;;;;;9.65;3.65;;;20.60;99.90;;;;;;5097146;28;20036;-85
2022/06/15 11:59:48;;;;;;;8.02;3.67;;;20.60;99.90;;;;;;5081101;28;20020;-83
2022/06/15 12:02:19;;;;;;;7.72;3.60;;;20.80;99.90;;;;;;5087764;28;20092;-85
2022/06/15 12:05:08;;;;;;;6.72;3.03;;;21.10;99.90;;;;;;5071669;28;20063;-79
2022/06/15 12:08:10;;;;;;;9.00;3.30;;;20.80;99.90;;;;;;5088659;28;20040;-87
2022/06/15 12:10:41;;;;;;;6.15;3.10;;;21.10;99.90;;;;;;5051571;28;20036;-86
2022/06/15 12:13:16;;;;;;;6.22;3.47;;;21.20;99.90;;;;;;5068153;28;20044;-87
2022/06/15 12:15:59;;;;;;;6.20;2.85;;;21.10;99.90;;;;;;5088558;28;20107;-76
2022/06/15 12:18:31;;;;;;;4.63;2.55;;;21.10;99.90;;;;;;5087401;28;20048;-85
2022/06/15 12:21:25;;;;;;;9.45;3.65;;;21.50;99.90;;;;;;5073453;28;20048;-84
2022/06/15 12:24:14;;;;;;;9.25;3.45;;;21.00;99.90;;;;;;5048208;28;20044;-85
2022/06/15 12:27:04;;;;;;;5.30;3.75;;;21.50;99.90;;;;;;5067598;28;20044;-84
2022/06/15 12:29:51;;;;;;;6.22;2.90;;;21.80;99.90;;;;;;5050374;28;20112;-85
2022/06/15 12:35:30;;;;;;;11.73;3.90;;;21.20;99.90;;;;;;5051069;28;20055;-85
2022/06/15 12:38:02;;;;;;;6.43;3.00;;;22.10;99.90;;;;;;5073548;28;20059;-84
2022/06/15 12:40:30;;;;;;;6.35;3.78;;;21.60;99.90;;;;;;5079372;28;20501;-85
2022/06/15 12:43:27;;;;;;;3.85;3.15;;;21.10;99.90;;;;;;5071078;28;20127;-86
2022/06/15 12:46:08;;;;;;;5.22;3.05;;;20.70;99.90;;;;;;5075760;28;20048;-86
2022/06/15 12:48:50;;;;;;;6.38;3.33;;;20.70;99.90;;;;;;5088099;28;20048;-87
2022/06/15 12:51:31;;;;;;;6.50;2.67;;;20.60;99.90;;;;;;5089648;28;20036;-86
2022/06/15 12:54:09;;;;;;;5.35;3.53;;;20.60;99.90;;;;;;5089215;28;20073;-86
2022/06/15 12:57:08;;;;;;;5.15;3.70;;;20.30;99.90;;;;;;5078342;28;20145;-86
2022/06/15 13:00:12;;;;;;;8.55;3.97;;;20.30;99.90;;;;;;5067076;28;20036;-83
2022/06/15 13:02:57;;;;;;;13.38;4.05;;;20.40;99.90;;;;;;5048886;28;20532;-85
2022/06/15 13:05:32;;;;;;;5.85;2.95;;;20.20;99.90;;;;;;5068536;28;20049;-84
2022/06/15 13:08:16;;;;;;;7.25;3.15;;;20.20;99.90;;;;;;5068908;28;20503;-83
2022/06/15 13:11:15;;;;;;;6.22;3.42;;;20.70;99.90;;;;;;5069780;28;20040;-85
2022/06/15 13:13:45;;;;;;;3.92;3.58;;;20.70;99.90;;;;;;5067918;28;20048;-86
2022/06/15 13:16:35;;;;;;;10.07;5.28;;;20.90;99.90;;;;;;5074616;28;20205;-87
2022/06/15 13:19:03;;;;;;;6.57;3.20;;;21.10;99.90;;;;;;5074174;28;20063;-80
2022/06/15 13:21:52;;;;;;;6.18;3.72;;;21.00;99.90;;;;;;5073875;28;20064;-87
2022/06/15 13:24:19;;;;;;;8.73;4.43;;;21.10;99.90;;;;;;5072778;28;20642;-83
2022/06/15 13:26:44;;;;;;;6.63;3.15;;;21.00;99.90;;;;;;5053655;28;20096;-86